New Bedford, Illinois
Current Conditions -  °F | °C
As of 7:35 PM on Wednesday 26 Nov 2014 (Local Time) from KSQI Reporting Station
Overcast Overcast  
Wind Chill: 19°   Ceiling: 1700
Heat Index: 25°   Visibility: 10mi
Dew Point: 18°   Wind: 5mph
Humidity: 74%   Direction: 20°NNE
Pressure: 30.19"   Gusts: NA
Location:  41.51°N, 89.72°W
Report Text: KSQI 270135Z 02004KT 10SM OVC017 M04/M08 A3019 RMK AO1
Loading
Personal Weather Stations






























Interactive Weather Map New forecast layout! Learn more

10-Day Weather Forecast

Advertisements
Track Severe Weather on mobile